createdAt,value
2022-08-02T00:00:41.724Z,63.58
2022-08-02T00:01:43.941Z,63.58
2022-08-02T00:02:46.140Z,63.61
2022-08-02T00:03:48.092Z,63.62
2022-08-02T00:04:50.050Z,63.69
2022-08-02T00:05:53.725Z,63.65
2022-08-02T00:06:55.692Z,63.60
2022-08-02T00:07:57.648Z,63.62
2022-08-02T00:08:59.595Z,63.56
2022-08-02T00:10:01.551Z,63.51
2022-08-02T00:11:03.500Z,63.50
2022-08-02T00:12:05.453Z,63.52
2022-08-02T00:13:07.716Z,63.51
2022-08-02T00:14:09.667Z,63.47
2022-08-02T00:15:15.809Z,63.46
2022-08-02T00:16:16.684Z,63.41
2022-08-02T00:17:19.132Z,63.50
2022-08-02T00:18:21.163Z,63.50
2022-08-02T00:19:23.121Z,63.55
2022-08-02T00:20:25.476Z,63.58
2022-08-02T00:21:28.042Z,63.62
2022-08-02T00:22:30.406Z,63.71
2022-08-02T00:23:32.360Z,63.75
2022-08-02T00:24:36.055Z,63.75
2022-08-02T00:25:54.441Z,63.76
2022-08-02T00:26:41.799Z,63.79
2022-08-02T00:27:43.751Z,63.80
2022-08-02T00:28:45.704Z,63.83
2022-08-02T00:29:52.530Z,63.88
2022-08-02T00:30:51.351Z,63.89
2022-08-02T00:31:53.303Z,63.90
2022-08-02T00:32:55.255Z,63.85
2022-08-02T00:34:27.639Z,63.76
2022-08-02T00:35:00.901Z,63.75
2022-08-02T00:36:02.854Z,63.80
2022-08-02T00:37:04.812Z,63.78
2022-08-02T00:38:06.758Z,63.80
2022-08-02T00:39:33.646Z,63.81
2022-08-02T00:40:13.432Z,63.81
2022-08-02T00:41:15.379Z,63.88
2022-08-02T00:42:17.334Z,63.90
2022-08-02T00:43:19.797Z,63.96
2022-08-02T00:44:21.955Z,63.96
2022-08-02T00:46:02.456Z,63.89
2022-08-02T00:46:28.421Z,63.88
2022-08-02T00:47:30.278Z,63.82
2022-08-02T00:48:32.222Z,63.80
2022-08-02T00:49:34.314Z,63.80
2022-08-02T00:50:36.436Z,63.84
2022-08-02T00:51:38.292Z,63.78
2022-08-02T00:52:40.240Z,63.73
2022-08-02T00:53:42.090Z,63.73
2022-08-02T00:54:44.040Z,63.79
2022-08-02T00:55:45.997Z,63.89
2022-08-02T00:56:50.852Z,63.92
2022-08-02T00:57:51.945Z,63.94
2022-08-02T00:58:53.899Z,64.03
2022-08-02T00:59:56.059Z,64.03
2022-08-02T01:00:58.372Z,64.10
2022-08-02T01:02:00.500Z,64.12
2022-08-02T01:03:02.537Z,64.15
2022-08-02T01:04:04.486Z,64.16
2022-08-02T01:05:06.440Z,64.21
2022-08-02T01:06:12.047Z,64.28
2022-08-02T01:07:13.889Z,64.28
2022-08-02T01:08:16.085Z,64.26
2022-08-02T01:09:18.855Z,64.29
2022-08-02T01:10:21.622Z,64.34
2022-08-02T01:11:23.581Z,64.38
2022-08-02T01:12:25.522Z,64.33
2022-08-02T01:13:27.476Z,64.37
2022-08-02T01:14:29.439Z,64.45
2022-08-02T01:15:35.964Z,64.47
2022-08-02T01:16:35.292Z,64.51
2022-08-02T01:17:37.248Z,64.53
2022-08-02T01:18:39.197Z,64.53
2022-08-02T01:19:41.151Z,64.54
2022-08-02T01:20:43.410Z,64.49
2022-08-02T01:21:45.974Z,64.49
2022-08-02T01:23:03.364Z,64.43
2022-08-02T01:23:51.621Z,64.39
2022-08-02T01:24:53.606Z,64.33
2022-08-02T01:25:55.627Z,64.30
2022-08-02T01:26:57.582Z,64.32
2022-08-02T01:27:59.533Z,64.27
2022-08-02T01:29:01.494Z,64.20
2022-08-02T01:30:03.540Z,64.13
2022-08-02T01:31:06.007Z,64.10
2022-08-02T01:32:08.207Z,64.13
2022-08-02T01:33:10.421Z,64.09
2022-08-02T01:34:12.372Z,63.97
2022-08-02T01:35:14.328Z,63.89
2022-08-02T01:36:16.688Z,63.86
2022-08-02T01:37:18.641Z,63.81
2022-08-02T01:38:20.592Z,63.77
2022-08-02T01:39:26.700Z,63.74
2022-08-02T01:40:27.166Z,63.78
2022-08-02T01:41:29.113Z,63.78
2022-08-02T01:42:31.887Z,63.86
2022-08-02T01:43:34.451Z,63.93
2022-08-02T01:44:36.403Z,63.99
2022-08-02T01:45:38.357Z,64.06
2022-08-02T01:46:40.924Z,64.23
2022-08-02T01:47:42.876Z,64.34
2022-08-02T01:48:44.828Z,64.38
2022-08-02T01:49:46.782Z,64.34
2022-08-02T01:50:49.041Z,64.31
2022-08-02T01:51:50.993Z,64.26
2022-08-02T01:52:53.871Z,64.17
2022-08-02T01:53:56.026Z,64.11
2022-08-02T01:54:57.979Z,64.06
2022-08-02T01:55:59.932Z,64.06
2022-08-02T01:57:01.883Z,64.01
2022-08-02T01:58:03.834Z,63.98
2022-08-02T01:59:05.787Z,63.92
2022-08-02T02:00:08.151Z,63.89
2022-08-02T02:01:10.436Z,63.85
2022-08-02T02:02:14.770Z,63.82
2022-08-02T02:03:16.874Z,63.71
2022-08-02T02:04:18.830Z,63.68
2022-08-02T02:05:20.782Z,63.64
2022-08-02T02:06:23.551Z,63.61
2022-08-02T02:07:25.503Z,63.58
2022-08-02T02:08:27.861Z,63.56
2022-08-02T02:09:30.022Z,63.55
2022-08-02T02:10:32.286Z,63.48
2022-08-02T02:12:05.987Z,63.47
2022-08-02T02:12:38.030Z,63.50
2022-08-02T02:13:39.994Z,63.49
2022-08-02T02:14:41.938Z,63.49
2022-08-02T02:15:45.733Z,63.51
2022-08-02T02:16:48.301Z,63.57
2022-08-02T02:18:12.859Z,63.57
2022-08-02T02:18:54.150Z,63.49
2022-08-02T02:19:56.103Z,63.45
2022-08-02T02:20:58.256Z,63.45
2022-08-02T02:22:00.211Z,63.46
2022-08-02T02:24:11.472Z,63.57
2022-08-02T02:25:11.273Z,63.58
2022-08-02T02:27:17.757Z,63.61
2022-08-02T02:28:19.718Z,63.54
2022-08-02T02:29:21.665Z,63.52
2022-08-02T02:30:25.458Z,63.51
2022-08-02T02:31:27.410Z,63.58
2022-08-02T02:32:29.363Z,63.53
2022-08-02T02:33:31.418Z,63.50
2022-08-02T02:34:33.366Z,63.42
2022-08-02T02:35:35.322Z,63.41
2022-08-02T02:37:39.845Z,63.41
2022-08-02T02:38:41.794Z,63.45
2022-08-02T02:40:46.007Z,63.47
2022-08-02T02:41:48.575Z,63.41
2022-08-02T02:42:50.522Z,63.44
2022-08-02T02:43:52.473Z,63.43
2022-08-02T02:44:54.433Z,63.53
2022-08-02T02:45:56.377Z,63.51
2022-08-02T02:46:58.637Z,63.45
2022-08-02T02:48:00.594Z,63.38
2022-08-02T02:49:02.675Z,63.34
2022-08-02T02:50:04.834Z,63.31
2022-08-02T02:51:08.219Z,63.31
2022-08-02T02:52:10.782Z,63.28
2022-08-02T02:53:12.819Z,63.20
2022-08-02T02:54:30.905Z,63.20
2022-08-02T02:55:18.462Z,63.14
2022-08-02T02:56:21.023Z,63.13
2022-08-02T02:57:22.970Z,63.17
2022-08-02T02:58:28.965Z,63.11
2022-08-02T02:59:28.928Z,63.07
2022-08-02T03:00:32.621Z,63.02
2022-08-02T03:01:55.202Z,63.02
2022-08-02T03:02:38.676Z,62.96
2022-08-02T03:03:40.630Z,62.97
2022-08-02T03:04:56.931Z,62.97
2022-08-02T03:05:46.584Z,62.94
2022-08-02T03:06:48.738Z,62.91
2022-08-02T03:07:50.690Z,62.87
2022-08-02T03:08:52.664Z,62.86
2022-08-02T03:09:55.237Z,62.90
2022-08-02T03:10:57.600Z,62.88
2022-08-02T03:11:59.629Z,62.88
2022-08-02T03:13:01.582Z,62.87
2022-08-02T03:14:03.536Z,62.88
2022-08-02T03:15:05.488Z,62.91
2022-08-02T03:16:07.641Z,62.89
2022-08-02T03:17:09.594Z,62.87
2022-08-02T03:18:11.560Z,62.90
2022-08-02T03:19:15.341Z,62.84
2022-08-02T03:20:17.808Z,62.80
2022-08-02T03:21:19.762Z,62.74
2022-08-02T03:22:22.345Z,62.75
2022-08-02T03:23:24.279Z,62.83
2022-08-02T03:24:27.724Z,62.79
2022-08-02T03:25:30.028Z,63.10
2022-08-02T03:26:32.388Z,63.10
2022-08-02T03:27:34.340Z,62.81
2022-08-02T03:28:36.285Z,62.81
2022-08-02T03:29:38.140Z,62.82
2022-08-02T03:30:40.288Z,62.82
2022-08-02T03:31:42.246Z,62.82
2022-08-02T03:32:44.093Z,62.80
2022-08-02T03:33:46.043Z,62.93
2022-08-02T03:34:47.998Z,63.00
2022-08-02T03:35:50.265Z,63.02
2022-08-02T03:36:52.315Z,63.10
2022-08-02T03:37:54.274Z,63.10
2022-08-02T03:38:56.219Z,63.10
2022-08-02T03:39:58.174Z,63.09
2022-08-02T03:41:00.224Z,63.13
2022-08-02T03:42:02.076Z,63.18
2022-08-02T03:43:04.948Z,63.25
2022-08-02T03:44:06.904Z,63.33
2022-08-02T03:45:09.164Z,63.36
2022-08-02T03:46:12.034Z,63.38
2022-08-02T03:47:13.989Z,63.33
2022-08-02T03:48:34.946Z,63.58
2022-08-02T03:49:19.602Z,63.58
2022-08-02T03:50:22.199Z,63.55
2022-08-02T03:51:24.356Z,63.52
2022-08-02T03:52:26.312Z,63.49
2022-08-02T03:53:28.260Z,63.49
2022-08-02T03:54:32.897Z,63.46
2022-08-02T03:55:33.810Z,63.42
2022-08-02T03:56:35.859Z,63.38
2022-08-02T03:57:37.811Z,63.37
2022-08-02T03:58:39.768Z,63.50
2022-08-02T03:59:41.723Z,63.63
2022-08-02T04:00:43.936Z,63.80
2022-08-02T04:01:46.646Z,63.89
2022-08-02T04:02:48.496Z,63.95
2022-08-02T04:03:50.447Z,63.96
2022-08-02T04:04:52.401Z,63.89
2022-08-02T04:06:00.890Z,63.81
2022-08-02T04:06:58.353Z,63.84
2022-08-02T04:08:33.621Z,63.90
2022-08-02T04:09:05.332Z,64.03
2022-08-02T04:10:07.696Z,64.01
2022-08-02T04:11:09.648Z,64.11
2022-08-02T04:12:11.952Z,64.23
2022-08-02T04:13:14.167Z,64.34
2022-08-02T04:14:17.361Z,64.48
2022-08-02T04:15:19.300Z,64.55
2022-08-02T04:16:22.175Z,64.54
2022-08-02T04:17:24.125Z,64.53
2022-08-02T04:18:26.078Z,64.44
2022-08-02T04:19:27.978Z,64.40
2022-08-02T04:20:30.496Z,64.40
2022-08-02T04:21:48.705Z,63.89
2022-08-02T04:22:36.450Z,63.92
2022-08-02T04:23:38.501Z,63.84
2022-08-02T04:24:40.557Z,63.69
2022-08-02T04:25:43.028Z,63.59
2022-08-02T04:26:45.076Z,63.43
2022-08-02T04:28:15.288Z,63.51
2022-08-02T04:28:52.570Z,63.45
2022-08-02T04:29:54.416Z,63.52
2022-08-02T04:30:56.367Z,63.46
2022-08-02T04:31:58.319Z,63.38
2022-08-02T04:33:00.275Z,63.37
2022-08-02T04:34:02.225Z,63.32
2022-08-02T04:35:18.593Z,63.09
2022-08-02T04:36:09.510Z,62.83
2022-08-02T04:37:11.462Z,62.77
2022-08-02T04:38:14.551Z,62.80
2022-08-02T04:39:16.604Z,62.79
2022-08-02T04:40:20.598Z,62.46
2022-08-02T04:41:23.267Z,62.36
2022-08-02T04:42:25.219Z,62.46
2022-08-02T04:43:27.172Z,62.64
2022-08-02T04:44:29.133Z,62.74
2022-08-02T04:45:31.076Z,62.76
2022-08-02T04:46:33.131Z,62.42
2022-08-02T04:47:54.479Z,62.42
2022-08-02T04:48:38.880Z,62.40
2022-08-02T04:49:40.822Z,62.41
2022-08-02T04:50:42.886Z,62.38
2022-08-02T04:51:44.738Z,62.28
2022-08-02T04:52:46.690Z,62.15
2022-08-02T04:53:48.744Z,62.26
2022-08-02T04:54:51.312Z,62.24
2022-08-02T04:55:53.172Z,62.05
2022-08-02T04:56:55.318Z,62.04
2022-08-02T04:57:57.275Z,62.00
2022-08-02T04:58:59.225Z,62.01
2022-08-02T05:00:01.178Z,62.08
2022-08-02T05:01:03.134Z,62.31
2022-08-02T05:02:05.496Z,62.46
2022-08-02T05:03:07.341Z,62.62
2022-08-02T05:04:09.296Z,62.45
2022-08-02T05:05:11.246Z,62.67
2022-08-02T05:06:19.411Z,62.61
2022-08-02T05:07:18.022Z,62.39
2022-08-02T05:08:19.975Z,62.47
2022-08-02T05:09:22.236Z,62.12
2022-08-02T05:10:24.391Z,61.59
2022-08-02T05:11:34.580Z,61.36
2022-08-02T05:12:30.038Z,61.22
2022-08-02T05:13:31.987Z,61.09
2022-08-02T05:14:33.939Z,61.27
2022-08-02T05:15:35.890Z,61.24
2022-08-02T05:16:37.949Z,61.40
2022-08-02T05:17:39.900Z,61.46
2022-08-02T05:18:43.592Z,61.19
2022-08-02T05:19:45.544Z,61.02
2022-08-02T05:20:47.598Z,60.94
2022-08-02T05:21:49.447Z,60.85
2022-08-02T05:22:51.406Z,60.76
2022-08-02T05:23:53.452Z,60.50
2022-08-02T05:24:55.512Z,60.54
2022-08-02T05:25:57.467Z,60.76
2022-08-02T05:26:59.526Z,60.82
2022-08-02T05:28:01.474Z,60.63
2022-08-02T05:29:03.426Z,60.39
2022-08-02T05:30:05.585Z,60.31
2022-08-02T05:31:07.533Z,60.25
2022-08-02T05:32:11.538Z,60.18
2022-08-02T05:33:13.692Z,60.15
2022-08-02T05:34:15.539Z,60.06
2022-08-02T05:35:17.491Z,59.97
2022-08-02T05:36:21.418Z,60.12
2022-08-02T05:37:23.853Z,60.17
2022-08-02T05:38:26.183Z,60.04
2022-08-02T05:39:31.733Z,59.96
2022-08-02T05:40:32.792Z,60.07
2022-08-02T05:41:34.749Z,60.09
2022-08-02T05:42:37.113Z,60.41
2022-08-02T05:43:39.066Z,60.51
2022-08-02T05:44:41.017Z,60.36
2022-08-02T05:45:43.071Z,60.35
2022-08-02T05:46:45.040Z,60.31
2022-08-02T05:47:48.821Z,60.18
2022-08-02T05:48:50.729Z,60.00
2022-08-02T05:49:52.621Z,59.98
2022-08-02T05:50:54.781Z,59.94
2022-08-02T05:51:56.731Z,59.95
2022-08-02T05:52:58.683Z,60.00
2022-08-02T05:54:00.634Z,60.02
2022-08-02T05:55:02.587Z,60.22
2022-08-02T05:56:08.478Z,60.47
2022-08-02T05:57:08.850Z,60.32
2022-08-02T05:58:10.803Z,60.22
2022-08-02T05:59:12.753Z,60.26
2022-08-02T06:00:15.629Z,59.88
2022-08-02T06:01:17.810Z,59.84
2022-08-02T06:02:20.257Z,59.87
2022-08-02T06:03:24.631Z,59.93
2022-08-02T06:04:26.713Z,60.00
2022-08-02T06:05:28.669Z,59.84
2022-08-02T06:06:32.466Z,59.75
2022-08-02T06:07:34.432Z,59.84
2022-08-02T06:08:36.774Z,59.99
2022-08-02T06:09:38.729Z,59.92
2022-08-02T06:10:40.679Z,59.81
2022-08-02T06:11:42.836Z,59.77
2022-08-02T06:12:46.631Z,59.69
2022-08-02T06:13:48.590Z,59.85
2022-08-02T06:14:54.429Z,59.91
2022-08-02T06:15:54.335Z,59.86
2022-08-02T06:16:56.495Z,59.72
2022-08-02T06:17:58.448Z,59.98
2022-08-02T06:19:00.406Z,60.05
2022-08-02T06:20:02.455Z,59.91
2022-08-02T06:22:33.663Z,59.77
2022-08-02T06:22:34.995Z,59.95
2022-08-02T06:23:13.860Z,59.75
2022-08-02T06:24:15.897Z,59.70
2022-08-02T06:25:50.145Z,59.68
2022-08-02T06:26:22.359Z,59.78
2022-08-02T06:27:24.417Z,59.95
2022-08-02T06:28:26.373Z,59.68
2022-08-02T06:29:28.425Z,59.66
2022-08-02T06:30:33.292Z,59.39
2022-08-02T06:31:35.495Z,59.50
2022-08-02T06:32:37.450Z,59.46
2022-08-02T06:33:39.321Z,59.36
2022-08-02T06:34:41.255Z,59.48
2022-08-02T06:35:43.206Z,59.35
2022-08-02T06:36:45.366Z,59.25
2022-08-02T06:37:47.929Z,59.54
2022-08-02T06:38:49.881Z,59.25
2022-08-02T06:39:53.274Z,59.31
2022-08-02T06:40:55.838Z,58.70
2022-08-02T06:41:57.889Z,58.57
2022-08-02T06:42:59.944Z,58.39
2022-08-02T06:44:19.441Z,58.55
2022-08-02T06:45:05.804Z,58.87
2022-08-02T06:46:38.023Z,59.07
2022-08-02T06:47:13.344Z,58.90
2022-08-02T06:48:15.861Z,58.68
2022-08-02T06:49:17.969Z,58.67
2022-08-02T06:50:20.984Z,58.70
2022-08-02T06:51:22.935Z,58.24
2022-08-02T06:52:28.267Z,58.26
2022-08-02T06:53:28.688Z,58.47
2022-08-02T06:54:30.742Z,58.40
2022-08-02T06:55:32.698Z,58.38
2022-08-02T06:56:36.499Z,58.86
2022-08-02T06:57:38.854Z,58.86
2022-08-02T06:58:40.907Z,58.78
2022-08-02T06:59:43.164Z,58.70
2022-08-02T07:00:45.426Z,58.97
2022-08-02T07:01:47.858Z,59.05
2022-08-02T07:02:49.841Z,58.50
2022-08-02T07:03:51.998Z,58.23
2022-08-02T07:04:55.607Z,58.19
2022-08-02T07:05:57.543Z,58.10
2022-08-02T07:06:59.699Z,57.89
2022-08-02T07:08:01.651Z,57.80
2022-08-02T07:09:21.165Z,57.87
2022-08-02T07:10:08.115Z,58.06
2022-08-02T07:11:10.069Z,56.95
2022-08-02T07:12:12.407Z,56.65
2022-08-02T07:13:14.694Z,56.46
2022-08-02T07:14:16.743Z,55.88
2022-08-02T07:15:18.695Z,55.71
2022-08-02T07:16:20.957Z,55.99
2022-08-02T07:17:22.909Z,55.94
2022-08-02T07:18:24.867Z,55.79
2022-08-02T07:19:34.960Z,55.63
2022-08-02T07:20:30.716Z,55.71
2022-08-02T07:21:55.838Z,56.16
2022-08-02T07:22:36.873Z,56.47
2022-08-02T07:23:38.925Z,56.68
2022-08-02T07:24:40.881Z,57.05
2022-08-02T07:26:02.881Z,57.32
2022-08-02T07:27:08.939Z,57.29
2022-08-02T07:27:50.424Z,57.19
2022-08-02T07:28:52.376Z,57.16
2022-08-02T07:29:54.430Z,56.93
2022-08-02T07:30:56.487Z,56.89
2022-08-02T07:31:58.441Z,57.02
2022-08-02T07:33:00.388Z,56.60
2022-08-02T07:34:02.341Z,57.17
2022-08-02T07:35:06.961Z,57.53
2022-08-02T07:36:09.613Z,57.73
2022-08-02T07:37:35.327Z,57.49
2022-08-02T07:38:16.191Z,57.68
2022-08-02T07:39:20.015Z,57.15
2022-08-02T07:40:24.322Z,56.28
2022-08-02T07:41:44.642Z,56.11
2022-08-02T07:42:46.739Z,56.56
2022-08-02T07:43:48.693Z,57.06
2022-08-02T07:44:50.646Z,57.13
2022-08-02T07:45:57.206Z,56.98
2022-08-02T07:46:56.802Z,56.92
2022-08-02T07:47:58.756Z,57.06
2022-08-02T07:49:00.743Z,57.16
2022-08-02T07:50:02.877Z,57.05
2022-08-02T07:51:04.939Z,57.34
2022-08-02T07:52:06.871Z,57.50
2022-08-02T07:53:08.773Z,57.86
2022-08-02T07:54:10.674Z,57.88
2022-08-02T07:55:14.358Z,57.63
2022-08-02T07:56:18.069Z,57.24
2022-08-02T07:57:20.006Z,57.14
2022-08-02T07:58:21.960Z,57.20
2022-08-02T07:59:23.915Z,57.20
2022-08-02T08:00:26.781Z,57.12
2022-08-02T08:01:29.380Z,57.07
2022-08-02T08:02:31.409Z,56.99
2022-08-02T08:04:54.523Z,56.81
2022-08-02T08:05:56.409Z,56.40
2022-08-02T08:06:58.974Z,55.72
2022-08-02T08:08:00.931Z,55.73
2022-08-02T08:09:02.879Z,56.06
2022-08-02T08:10:04.938Z,55.91
2022-08-02T08:11:07.277Z,56.47
2022-08-02T08:12:09.725Z,56.95
2022-08-02T08:13:12.022Z,57.14
2022-08-02T08:14:16.883Z,57.29
2022-08-02T08:15:17.674Z,57.29
2022-08-02T08:16:20.234Z,56.97
2022-08-02T08:17:22.390Z,56.93
2022-08-02T08:18:24.343Z,56.63
2022-08-02T08:19:50.070Z,56.71
2022-08-02T08:20:30.296Z,56.67
2022-08-02T08:21:32.458Z,56.65
2022-08-02T08:22:34.407Z,56.66
2022-08-02T08:23:36.460Z,57.10
2022-08-02T08:24:38.330Z,57.21
2022-08-02T08:25:41.243Z,57.12
2022-08-02T08:26:43.957Z,57.03
2022-08-02T08:27:45.912Z,57.26
2022-08-02T08:28:47.866Z,57.49
2022-08-02T08:29:49.819Z,57.82
2022-08-02T08:30:51.979Z,57.30
2022-08-02T08:31:53.929Z,57.12
2022-08-02T08:32:56.084Z,57.15
2022-08-02T08:33:58.252Z,57.06
2022-08-02T08:35:00.198Z,56.81
2022-08-02T08:36:02.465Z,57.16
2022-08-02T08:37:04.811Z,56.71
2022-08-02T08:38:07.891Z,56.78
2022-08-02T08:39:09.949Z,56.95
2022-08-02T08:40:12.315Z,56.57
2022-08-02T08:41:14.675Z,56.51
2022-08-02T08:42:16.936Z,56.75
2022-08-02T08:43:20.724Z,56.63
2022-08-02T08:44:22.690Z,56.86
2022-08-02T08:45:24.634Z,56.87
2022-08-02T08:46:27.099Z,56.74
2022-08-02T08:47:33.567Z,56.83
2022-08-02T08:48:32.951Z,56.98
2022-08-02T08:49:34.896Z,55.96
2022-08-02T08:50:36.851Z,56.13
2022-08-02T08:51:38.802Z,55.95
2022-08-02T08:52:40.771Z,55.71
2022-08-02T08:53:42.710Z,55.49
2022-08-02T08:54:44.763Z,54.92
2022-08-02T08:55:48.564Z,55.04
2022-08-02T08:56:50.618Z,55.12
2022-08-02T08:57:52.571Z,55.63
2022-08-02T08:58:54.517Z,55.87
2022-08-02T08:59:56.482Z,55.95
2022-08-02T09:00:58.799Z,55.48
2022-08-02T09:02:00.805Z,55.38
2022-08-02T09:03:04.484Z,54.75
2022-08-02T09:04:07.768Z,54.46
2022-08-02T09:05:09.720Z,54.68
2022-08-02T09:06:11.983Z,54.93
2022-08-02T09:07:13.929Z,54.94
2022-08-02T09:08:17.421Z,55.10
2022-08-02T09:09:19.375Z,55.64
2022-08-02T09:10:22.141Z,55.32
2022-08-02T09:11:24.098Z,55.02
2022-08-02T09:12:26.053Z,55.04
2022-08-02T09:13:31.208Z,55.06
2022-08-02T09:14:31.798Z,54.68
2022-08-02T09:15:33.763Z,54.82
2022-08-02T09:16:35.806Z,54.69
2022-08-02T09:17:37.756Z,54.20
2022-08-02T09:18:39.709Z,53.56
2022-08-02T09:19:46.360Z,54.12
2022-08-02T09:20:45.662Z,54.19
2022-08-02T09:21:48.226Z,54.23
2022-08-02T09:22:50.180Z,53.92
2022-08-02T09:23:52.135Z,54.09
2022-08-02T09:24:54.086Z,53.62
2022-08-02T09:25:58.943Z,53.19
2022-08-02T09:26:59.832Z,53.70
2022-08-02T09:28:01.788Z,54.06
2022-08-02T09:29:03.734Z,54.02
2022-08-02T09:30:12.091Z,54.43
2022-08-02T09:31:09.893Z,54.24
2022-08-02T09:32:11.994Z,53.93
2022-08-02T09:33:14.213Z,52.87
2022-08-02T09:34:16.160Z,52.09
2022-08-02T09:35:19.955Z,51.85
2022-08-02T09:36:23.654Z,51.64
2022-08-02T09:37:25.813Z,51.80
2022-08-02T09:38:27.764Z,51.79
2022-08-02T09:39:29.716Z,51.77
2022-08-02T09:40:31.969Z,51.02
2022-08-02T09:41:34.133Z,50.54
2022-08-02T09:42:36.288Z,50.62
2022-08-02T09:43:39.375Z,51.10
2022-08-02T09:44:43.172Z,51.03
2022-08-02T09:45:45.120Z,50.74
2022-08-02T09:46:47.788Z,50.89
2022-08-02T09:47:49.747Z,50.56
2022-08-02T09:48:52.965Z,50.65
2022-08-02T09:49:55.183Z,50.43
2022-08-02T09:50:57.550Z,50.00
2022-08-02T09:51:59.495Z,50.19
2022-08-02T09:53:01.452Z,50.67
2022-08-02T09:54:08.828Z,51.00
2022-08-02T09:55:07.198Z,51.25
2022-08-02T09:56:34.311Z,51.30
2022-08-02T09:57:13.455Z,50.86
2022-08-02T09:58:15.407Z,50.99
2022-08-02T09:59:17.361Z,51.20
2022-08-02T10:00:37.029Z,51.07
2022-08-02T10:01:30.111Z,51.13
2022-08-02T10:02:28.305Z,51.09
2022-08-02T10:03:35.243Z,50.90
2022-08-02T10:04:45.259Z,50.94
2022-08-02T10:05:42.887Z,50.98
2022-08-02T10:06:41.882Z,51.27
2022-08-02T10:07:43.837Z,51.40
2022-08-02T10:08:45.806Z,51.34
2022-08-02T10:09:47.822Z,51.54
2022-08-02T10:10:50.099Z,51.95
2022-08-02T10:11:52.052Z,52.07
2022-08-02T10:12:53.996Z,51.57
2022-08-02T10:13:55.960Z,51.57
2022-08-02T10:14:57.912Z,51.05
2022-08-02T10:15:59.860Z,50.89
2022-08-02T10:17:01.810Z,51.07
2022-08-02T10:18:12.957Z,51.07
2022-08-02T10:19:07.557Z,51.36
2022-08-02T10:20:10.223Z,51.47
2022-08-02T10:21:12.291Z,51.03
2022-08-02T10:22:14.869Z,51.01
2022-08-02T10:23:17.225Z,51.00
2022-08-02T10:24:19.166Z,51.05
2022-08-02T10:25:21.120Z,50.99
2022-08-02T10:26:24.809Z,51.12
2022-08-02T10:27:28.218Z,50.96
2022-08-02T10:28:30.456Z,50.84
2022-08-02T10:29:44.733Z,50.66
2022-08-02T10:30:36.108Z,50.81
2022-08-02T10:31:38.059Z,51.01
2022-08-02T10:32:40.115Z,51.29
2022-08-02T10:33:42.066Z,51.60
2022-08-02T10:34:44.014Z,51.62
2022-08-02T10:35:47.705Z,51.82
2022-08-02T10:36:51.496Z,52.00
2022-08-02T10:37:53.458Z,52.13
2022-08-02T10:38:55.409Z,52.29
2022-08-02T10:39:57.260Z,52.46
2022-08-02T10:40:59.311Z,52.36
2022-08-02T10:42:01.269Z,52.45
2022-08-02T10:43:03.221Z,52.46
2022-08-02T10:44:05.172Z,52.59
2022-08-02T10:45:07.125Z,52.64
2022-08-02T10:46:10.203Z,52.60
2022-08-02T10:47:15.085Z,52.26
2022-08-02T10:48:17.179Z,52.11
2022-08-02T10:49:38.525Z,52.34
2022-08-02T10:50:23.746Z,52.23
2022-08-02T10:51:25.810Z,52.50
2022-08-02T10:52:27.744Z,52.76
2022-08-02T10:53:29.707Z,53.05
2022-08-02T10:54:31.563Z,52.83
2022-08-02T10:55:33.503Z,52.65
2022-08-02T10:56:35.467Z,52.79
2022-08-02T10:57:39.258Z,52.87
2022-08-02T10:58:41.209Z,52.80
2022-08-02T10:59:43.162Z,52.79
2022-08-02T11:00:45.349Z,52.84
2022-08-02T11:01:47.471Z,52.49
2022-08-02T11:02:53.211Z,52.55
2022-08-02T11:03:53.226Z,52.24
2022-08-02T11:04:55.076Z,52.13
2022-08-02T11:05:56.906Z,52.30
2022-08-02T11:06:59.078Z,52.01
2022-08-02T11:08:01.029Z,51.91
2022-08-02T11:09:04.434Z,51.90
2022-08-02T11:10:06.575Z,52.02
2022-08-02T11:11:08.638Z,52.12
2022-08-02T11:12:11.337Z,52.00
2022-08-02T11:13:13.556Z,52.10
2022-08-02T11:14:15.507Z,51.80
2022-08-02T11:15:17.466Z,51.16
2022-08-02T11:16:19.926Z,51.35
2022-08-02T11:17:21.880Z,50.99
2022-08-02T11:18:23.733Z,51.06
2022-08-02T11:19:25.681Z,51.61
2022-08-02T11:20:27.734Z,50.77
2022-08-02T11:21:30.000Z,50.69
2022-08-02T11:22:31.946Z,50.61
2022-08-02T11:23:44.298Z,51.05
2022-08-02T11:24:38.167Z,51.10
2022-08-02T11:26:02.884Z,51.38
2022-08-02T11:26:44.227Z,51.32
2022-08-02T11:27:46.111Z,51.11
2022-08-02T11:28:48.065Z,51.20
2022-08-02T11:29:50.166Z,51.69
2022-08-02T11:30:53.300Z,51.98
2022-08-02T11:31:55.252Z,52.08
2022-08-02T11:32:57.830Z,52.04
2022-08-02T11:33:59.772Z,51.78
2022-08-02T11:35:01.934Z,51.80
2022-08-02T11:36:04.085Z,51.75
2022-08-02T11:37:06.042Z,51.94
2022-08-02T11:38:07.992Z,51.86
2022-08-02T11:39:09.949Z,51.69
2022-08-02T11:40:19.285Z,51.85
2022-08-02T11:41:16.409Z,51.74
2022-08-02T11:42:20.306Z,51.88
2022-08-02T11:43:22.468Z,51.77
2022-08-02T11:44:24.418Z,51.83
2022-08-02T11:45:29.348Z,52.13
2022-08-02T11:46:31.905Z,52.33
2022-08-02T11:47:33.860Z,52.47
2022-08-02T11:48:35.813Z,52.41
2022-08-02T11:49:37.793Z,52.47
2022-08-02T11:50:39.820Z,52.08
2022-08-02T11:51:42.485Z,51.91
2022-08-02T11:52:44.447Z,51.97
2022-08-02T11:53:46.424Z,51.87
2022-08-02T11:54:48.347Z,51.64
2022-08-02T11:55:50.297Z,51.59
2022-08-02T11:56:52.351Z,51.09
2022-08-02T11:58:03.671Z,51.18
2022-08-02T11:58:57.895Z,50.39
2022-08-02T11:59:59.854Z,50.44
2022-08-02T12:01:01.805Z,50.29
2022-08-02T12:03:25.127Z,50.62
2022-08-02T12:04:27.011Z,50.80
2022-08-02T12:06:03.087Z,50.51
2022-08-02T12:06:33.499Z,50.64
2022-08-02T12:07:36.284Z,50.18
2022-08-02T12:08:39.736Z,50.49
2022-08-02T12:09:41.797Z,50.06
2022-08-02T12:10:44.051Z,50.04
2022-08-02T12:11:46.208Z,50.30
2022-08-02T12:12:48.064Z,50.60
2022-08-02T12:13:57.064Z,50.51
2022-08-02T12:14:54.623Z,50.74
2022-08-02T12:15:56.475Z,50.66
2022-08-02T12:16:58.534Z,50.67
2022-08-02T12:18:00.482Z,51.06
2022-08-02T12:19:02.545Z,51.28
2022-08-02T12:20:07.458Z,51.16
2022-08-02T12:21:11.151Z,51.77
2022-08-02T12:22:13.996Z,51.91
2022-08-02T12:23:16.398Z,52.00
2022-08-02T12:24:18.412Z,52.73
2022-08-02T12:25:34.660Z,52.87
2022-08-02T12:26:24.925Z,52.41
2022-08-02T12:27:28.102Z,52.41
2022-08-02T12:28:30.050Z,52.50
2022-08-02T12:29:57.696Z,51.93
2022-08-02T12:30:35.903Z,51.87
2022-08-02T12:31:37.884Z,51.96
2022-08-02T12:32:41.652Z,51.67
2022-08-02T12:33:43.605Z,51.56
2022-08-02T12:34:45.558Z,51.34
2022-08-02T12:35:47.508Z,51.25
2022-08-02T12:36:49.666Z,51.28
2022-08-02T12:37:52.236Z,51.38
2022-08-02T12:38:54.187Z,51.16
2022-08-02T12:39:56.140Z,51.24
2022-08-02T12:40:58.349Z,51.24
2022-08-02T12:42:00.248Z,51.10
2022-08-02T12:43:02.712Z,51.06
2022-08-02T12:44:06.507Z,51.21
2022-08-02T12:45:08.568Z,51.44
2022-08-02T12:46:12.124Z,51.02
2022-08-02T12:47:14.105Z,50.95
2022-08-02T12:48:16.056Z,50.75
2022-08-02T12:49:18.992Z,50.33
2022-08-02T12:50:22.726Z,50.21
2022-08-02T12:51:24.677Z,50.25
2022-08-02T12:52:28.478Z,50.06
2022-08-02T12:53:30.633Z,50.02
2022-08-02T12:54:32.508Z,50.41
2022-08-02T12:56:01.875Z,50.33
2022-08-02T12:56:38.234Z,50.14
2022-08-02T12:57:41.079Z,49.85
2022-08-02T12:58:43.262Z,49.87
2022-08-02T12:59:45.221Z,49.57
2022-08-02T13:00:47.268Z,49.44
2022-08-02T13:01:51.121Z,49.46
2022-08-02T13:02:53.121Z,49.39
2022-08-02T13:04:09.556Z,49.62
2022-08-02T13:04:58.863Z,49.83
2022-08-02T13:06:07.863Z,49.78
2022-08-02T13:07:04.618Z,49.96
2022-08-02T13:08:06.569Z,50.29
2022-08-02T13:09:08.623Z,50.18
2022-08-02T13:10:11.601Z,50.18
2022-08-02T13:11:13.556Z,49.99
2022-08-02T13:12:15.983Z,49.67
2022-08-02T13:13:18.482Z,49.50
2022-08-02T13:14:20.540Z,49.82
2022-08-02T13:15:49.149Z,49.58
2022-08-02T13:16:30.908Z,49.65
2022-08-02T13:17:30.285Z,49.33
2022-08-02T13:18:32.235Z,49.40
2022-08-02T13:19:34.188Z,49.48
2022-08-02T13:20:38.195Z,49.40
2022-08-02T13:22:01.462Z,49.35
2022-08-02T13:22:52.988Z,49.70
2022-08-02T13:23:54.063Z,49.63
2022-08-02T13:24:55.733Z,49.46
2022-08-02T13:25:55.628Z,49.19
2022-08-02T13:26:57.687Z,49.23
2022-08-02T13:28:00.765Z,49.17
2022-08-02T13:29:03.643Z,49.08
2022-08-02T13:30:05.898Z,48.91
2022-08-02T13:31:34.221Z,48.91